Elation — 3FOC5 — position and weather

sailwx.info

Track history (hours):
 
Tides and Currents Weather Stations Pressure Air Temp Water Temp Dewpoint Dewpoint Depression Visibility Wind Speed Wind Dir Waves Ship Positions

Elation

Operator: Carnival Cruise Lines

Last reported at 2017-Feb-23 06:07 UTC. Time now 2017-Feb-24 08:20 UTC.
Position N 25°53' W 079°24'.

Type: Ship. MMSI: 355831000.

Date/timePositionNaut miles runAvg speedWind from/ knotsBaromVisibWave heightAir tempDewpointWater temp
2017-Feb-23 06:07N 25°53' W 079°24'1221.3
2017-Feb-23 05:33N 25°42' W 079°30'34 1.2
2017-Feb-22 02:06N 25°19' W 079°57'916.2
2017-Feb-22 01:33N 25°28' W 079°56'1615.9
2017-Feb-22 00:33N 25°43' W 079°55'1716.8
2017-Feb-21 23:33N 26°00' W 079°55'1616.3
2017-Feb-21 22:33N 26°16' W 079°54'1515.3
2017-Feb-21 21:33N 26°32' W 079°54'1515.0
2017-Feb-21 20:33N 26°47' W 079°54'1514.8
2017-Feb-21 19:33N 27°02' W 079°54'7710.1
2017-Feb-21 12:00N 28°18' W 080°00'   160 / 101021.410.8 22.015.424.7
2017-Feb-18 03:00N 26°06' W 078°24'   100 / 151019.127.0 20.010.925.0
Track history (hours):
 
Tides and Currents Weather Stations Pressure Air Temp Water Temp Dewpoint Dewpoint Depression Visibility Wind Speed Wind Dir Waves Ship Positions

Elation

Operator: Carnival Cruise Lines

Last reported at 2017-Feb-23 06:07 UTC. Time now 2017-Feb-24 08:20 UTC.
Position N 25°53' W 079°24'.

Type: Ship. MMSI: 355831000.

Date/timePositionNaut miles runAvg speedWind from/ knotsBaromVisibWave heightAir tempDewpointWater temp
2017-Feb-23 06:07N 25°53' W 079°24'1221.3
2017-Feb-23 05:33N 25°42' W 079°30'34 1.2
2017-Feb-22 02:06N 25°19' W 079°57'916.2
2017-Feb-22 01:33N 25°28' W 079°56'1615.9
2017-Feb-22 00:33N 25°43' W 079°55'1716.8
2017-Feb-21 23:33N 26°00' W 079°55'1616.3
2017-Feb-21 22:33N 26°16' W 079°54'1515.3
2017-Feb-21 21:33N 26°32' W 079°54'1515.0
2017-Feb-21 20:33N 26°47' W 079°54'1514.8
2017-Feb-21 19:33N 27°02' W 079°54'7710.1
2017-Feb-21 12:00N 28°18' W 080°00'   160 / 101021.410.8 22.015.424.7
2017-Feb-18 03:00N 26°06' W 078°24'   100 / 151019.127.0 20.010.925.0

Dump ship's entire track history